createdAt,value
2022-10-17T00:02:27.105Z,85.10
2022-10-17T00:04:54.197Z,85.00
2022-10-17T00:07:21.253Z,85.00
2022-10-17T00:09:48.420Z,85.20
2022-10-17T00:12:15.475Z,85.00
2022-10-17T00:14:42.576Z,85.00
2022-10-17T00:17:09.674Z,85.10
2022-10-17T00:19:36.813Z,85.40
2022-10-17T00:22:03.869Z,85.60
2022-10-17T00:24:31.869Z,85.30
2022-10-17T00:26:59.049Z,85.60
2022-10-17T00:29:26.150Z,86.50
2022-10-17T00:31:57.322Z,86.70
2022-10-17T00:34:25.416Z,87.00
2022-10-17T00:36:52.987Z,87.30
2022-10-17T00:39:20.806Z,87.80
2022-10-17T00:41:48.067Z,87.50
2022-10-17T00:44:30.375Z,87.80
2022-10-17T00:47:11.843Z,87.70
2022-10-17T00:49:39.817Z,88.50
2022-10-17T00:52:15.576Z,88.40
2022-10-17T00:54:51.091Z,88.50
2022-10-17T00:57:18.641Z,89.00
2022-10-17T00:59:50.347Z,89.60
2022-10-17T01:02:19.757Z,89.30
2022-10-17T01:04:51.458Z,89.10
2022-10-17T01:07:18.732Z,89.20
2022-10-17T01:09:47.046Z,90.00
2022-10-17T01:12:34.376Z,89.30
2022-10-17T01:15:13.428Z,89.00
2022-10-17T01:17:49.344Z,90.10
2022-10-17T01:20:51.693Z,90.30
2022-10-17T01:23:38.504Z,90.40
2022-10-17T01:26:06.187Z,90.70
2022-10-17T01:28:56.812Z,91.10
2022-10-17T01:31:30.200Z,91.20
2022-10-17T01:34:21.335Z,91.90
2022-10-17T01:37:26.317Z,92.10
2022-10-17T01:40:07.521Z,92.30
2022-10-17T01:42:42.616Z,92.60
2022-10-17T01:45:25.741Z,92.90
2022-10-17T01:47:54.565Z,92.90
2022-10-17T01:50:29.749Z,93.30
2022-10-17T01:53:02.772Z,93.60
2022-10-17T01:55:39.963Z,93.70
2022-10-17T01:58:12.484Z,93.90
2022-10-17T02:00:42.996Z,94.00
2022-10-17T02:03:15.648Z,94.10
2022-10-17T02:05:45.023Z,94.10
2022-10-17T02:08:13.016Z,94.10
2022-10-17T02:11:11.308Z,94.10
2022-10-17T02:14:02.978Z,94.30
2022-10-17T02:16:38.853Z,94.60
2022-10-17T02:19:09.141Z,95.20
2022-10-17T02:22:30.233Z,94.90
2022-10-17T02:25:02.995Z,95.10
2022-10-17T02:27:48.923Z,95.10
2022-10-17T02:30:33.306Z,95.00
2022-10-17T02:33:06.909Z,94.90
2022-10-17T02:35:39.979Z,95.00
2022-10-17T02:38:09.971Z,94.60
2022-10-17T02:40:38.350Z,94.60
2022-10-17T02:43:05.838Z,94.50
2022-10-17T02:45:36.116Z,94.20
2022-10-17T02:48:28.124Z,94.30
2022-10-17T02:51:10.593Z,94.10
2022-10-17T02:53:57.883Z,93.90
2022-10-17T02:56:26.235Z,93.80
2022-10-17T02:58:57.667Z,93.50
2022-10-17T03:01:25.570Z,93.50
2022-10-17T03:04:05.750Z,93.40
2022-10-17T03:06:32.908Z,93.30
2022-10-17T03:09:00.010Z,93.40
2022-10-17T03:11:28.183Z,93.60
2022-10-17T03:13:55.338Z,93.60
2022-10-17T03:16:22.699Z,93.70
2022-10-17T03:18:50.276Z,93.80
2022-10-17T03:21:18.052Z,94.00
2022-10-17T03:23:45.553Z,93.80
2022-10-17T03:26:14.486Z,94.30
2022-10-17T03:28:41.638Z,94.20
2022-10-17T03:31:15.560Z,94.30
2022-10-17T03:33:44.255Z,94.20
2022-10-17T03:36:14.203Z,94.30
2022-10-17T03:38:42.742Z,94.00
2022-10-17T03:41:10.150Z,94.20
2022-10-17T03:43:39.957Z,94.20
2022-10-17T03:46:07.886Z,94.00
2022-10-17T03:48:36.045Z,94.00
2022-10-17T03:51:07.608Z,94.00
2022-10-17T03:53:39.815Z,94.20
2022-10-17T03:56:24.259Z,94.10
2022-10-17T03:59:02.438Z,94.10
2022-10-17T04:01:37.374Z,94.30
2022-10-17T04:04:04.651Z,94.30
2022-10-17T04:06:34.953Z,94.60
2022-10-17T04:09:02.820Z,94.70
2022-10-17T04:11:52.955Z,95.50
2022-10-17T04:14:21.594Z,96.00
2022-10-17T04:16:48.739Z,96.60
2022-10-17T04:19:20.256Z,97.00
2022-10-17T04:21:48.422Z,97.40
2022-10-17T04:24:15.935Z,97.70
2022-10-17T04:27:05.597Z,97.80
2022-10-17T04:29:36.724Z,98.00
2022-10-17T04:32:15.217Z,98.40
2022-10-17T04:34:52.096Z,98.70
2022-10-17T04:37:21.979Z,99.00
2022-10-17T04:39:51.272Z,99.40
2022-10-17T04:42:18.342Z,99.70
2022-10-17T04:44:45.758Z,99.70
2022-10-17T04:47:15.253Z,99.60
2022-10-17T04:49:43.167Z,99.60
2022-10-17T04:52:11.421Z,99.40
2022-10-17T04:54:42.373Z,99.20
2022-10-17T04:57:10.984Z,99.10
2022-10-17T04:59:40.105Z,98.70
2022-10-17T05:02:33.331Z,98.60
2022-10-17T05:05:02.462Z,98.50
2022-10-17T05:07:30.456Z,98.00
2022-10-17T05:10:10.196Z,97.90
2022-10-17T05:12:39.220Z,97.80
2022-10-17T05:15:07.194Z,97.90
2022-10-17T05:17:34.998Z,97.80
2022-10-17T05:20:02.216Z,98.00
2022-10-17T05:22:32.094Z,97.80
2022-10-17T05:25:00.440Z,98.10
2022-10-17T05:27:27.632Z,98.00
2022-10-17T05:29:55.094Z,97.70
2022-10-17T05:32:28.904Z,97.40
2022-10-17T05:34:56.148Z,96.90
2022-10-17T05:37:25.463Z,96.20
2022-10-17T05:39:55.474Z,96.50
2022-10-17T05:42:22.810Z,96.30
2022-10-17T05:44:50.180Z,95.90
2022-10-17T05:47:19.793Z,95.80
2022-10-17T05:49:51.384Z,95.70
2022-10-17T05:52:21.350Z,95.80
2022-10-17T05:55:00.253Z,96.00
2022-10-17T05:57:27.842Z,95.70
2022-10-17T05:59:57.125Z,95.60
2022-10-17T06:02:24.321Z,95.70
2022-10-17T06:04:51.655Z,95.80
2022-10-17T06:07:21.003Z,96.00
2022-10-17T06:09:49.140Z,95.70
2022-10-17T06:12:16.383Z,95.70
2022-10-17T06:14:44.391Z,95.70
2022-10-17T06:17:16.090Z,95.50
2022-10-17T06:19:45.075Z,95.50
2022-10-17T06:22:14.780Z,95.40
2022-10-17T06:24:42.689Z,95.40
2022-10-17T06:27:12.126Z,95.40
2022-10-17T06:29:41.162Z,95.30
2022-10-17T06:32:11.112Z,95.60
2022-10-17T06:34:42.138Z,95.50
2022-10-17T06:37:10.047Z,95.40
2022-10-17T06:39:39.257Z,95.40
2022-10-17T06:42:11.407Z,95.00
2022-10-17T06:45:05.617Z,95.10
2022-10-17T06:47:40.256Z,94.90
2022-10-17T06:50:22.501Z,94.90
2022-10-17T06:52:59.847Z,94.70
2022-10-17T06:55:45.287Z,94.40
2022-10-17T06:58:19.052Z,94.50
2022-10-17T07:03:37.464Z,94.40
2022-10-17T07:06:04.797Z,94.70
2022-10-17T07:08:32.149Z,94.60
2022-10-17T07:11:14.250Z,94.20
2022-10-17T07:13:42.667Z,94.10
2022-10-17T07:16:10.643Z,93.80
2022-10-17T07:18:40.250Z,93.80
2022-10-17T07:21:08.896Z,93.70
2022-10-17T07:23:38.590Z,93.80
2022-10-17T07:26:09.280Z,93.90
2022-10-17T07:28:40.752Z,93.70
2022-10-17T07:31:24.342Z,93.80
2022-10-17T07:33:51.936Z,93.80
2022-10-17T07:36:19.565Z,93.50
2022-10-17T07:38:47.221Z,93.50
2022-10-17T07:41:19.219Z,93.00
2022-10-17T07:43:50.078Z,93.00
2022-10-17T07:46:21.403Z,93.00
2022-10-17T07:48:49.879Z,93.30
2022-10-17T07:51:20.227Z,93.30
2022-10-17T07:53:48.896Z,93.30
2022-10-17T07:56:16.610Z,93.30
2022-10-17T07:58:43.954Z,93.30
2022-10-17T08:01:15.597Z,93.10
2022-10-17T08:03:48.960Z,93.10
2022-10-17T08:06:16.139Z,93.20
2022-10-17T08:08:44.197Z,93.30
2022-10-17T08:11:13.777Z,93.10
2022-10-17T08:13:41.853Z,93.20
2022-10-17T08:16:11.415Z,93.30
2022-10-17T08:18:40.283Z,93.00
2022-10-17T08:21:08.572Z,93.00
2022-10-17T08:23:36.690Z,93.00
2022-10-17T08:26:05.933Z,93.30
2022-10-17T08:28:35.854Z,93.20
2022-10-17T08:31:14.684Z,92.60
2022-10-17T08:33:43.291Z,92.50
2022-10-17T08:36:13.043Z,93.00
2022-10-17T08:38:52.446Z,92.40
2022-10-17T08:41:42.071Z,92.60
2022-10-17T08:44:09.133Z,92.90
2022-10-17T08:46:39.597Z,92.90
2022-10-17T08:49:15.151Z,92.30
2022-10-17T08:51:52.853Z,92.50
2022-10-17T08:54:30.755Z,92.30
2022-10-17T08:56:57.906Z,92.20
2022-10-17T08:59:30.238Z,92.40
2022-10-17T09:02:30.171Z,92.00
2022-10-17T09:05:01.823Z,92.30
2022-10-17T09:07:41.859Z,91.70
2022-10-17T09:10:34.199Z,91.80
2022-10-17T09:13:17.324Z,91.80
2022-10-17T09:16:03.411Z,92.00
2022-10-17T09:18:33.376Z,91.60
2022-10-17T09:21:24.431Z,91.60
2022-10-17T09:24:03.777Z,91.50
2022-10-17T09:26:37.349Z,91.20
2022-10-17T09:29:25.110Z,91.30
2022-10-17T09:32:04.113Z,91.20
2022-10-17T09:34:32.887Z,91.20
2022-10-17T09:37:01.650Z,90.90
2022-10-17T09:39:32.188Z,90.60
2022-10-17T09:42:03.226Z,90.60
2022-10-17T09:44:32.365Z,90.60
2022-10-17T09:47:17.936Z,90.70
2022-10-17T09:49:47.358Z,90.50
2022-10-17T09:52:16.717Z,90.00
2022-10-17T09:54:48.343Z,90.10
2022-10-17T09:57:17.428Z,90.40
2022-10-17T09:59:59.930Z,89.60
2022-10-17T10:02:30.079Z,90.30
2022-10-17T10:05:07.391Z,89.40
2022-10-17T10:07:39.322Z,89.50
2022-10-17T10:10:27.635Z,89.80
2022-10-17T10:13:23.027Z,88.10
2022-10-17T10:15:51.000Z,88.80
2022-10-17T10:18:27.342Z,89.50
2022-10-17T10:21:08.881Z,87.90
2022-10-17T10:23:41.380Z,89.20
2022-10-17T10:26:22.423Z,88.00
2022-10-17T10:28:54.309Z,88.80
2022-10-17T10:31:31.607Z,88.60
2022-10-17T10:34:01.296Z,89.60
2022-10-17T10:36:47.620Z,89.10
2022-10-17T10:39:29.603Z,87.70
2022-10-17T10:41:57.273Z,88.60
2022-10-17T10:44:27.341Z,88.10
2022-10-17T10:47:15.576Z,88.40
2022-10-17T10:49:43.577Z,88.00
2022-10-17T10:52:20.749Z,86.00
2022-10-17T10:54:58.225Z,86.70
2022-10-17T10:57:31.333Z,88.70
2022-10-17T11:00:13.024Z,88.60
2022-10-17T11:03:10.509Z,88.30
2022-10-17T11:06:00.761Z,87.10
2022-10-17T11:08:52.513Z,86.60
2022-10-17T11:11:31.777Z,85.90
2022-10-17T11:14:05.497Z,86.80
2022-10-17T11:16:45.316Z,86.40
2022-10-17T11:19:34.032Z,86.60
2022-10-17T11:22:05.583Z,85.20
2022-10-17T11:24:59.781Z,84.50
2022-10-17T11:27:29.879Z,83.20
2022-10-17T11:29:58.206Z,84.20
2022-10-17T11:32:32.674Z,84.60
2022-10-17T11:35:26.381Z,83.10
2022-10-17T11:38:25.404Z,83.00
2022-10-17T11:40:56.136Z,83.30
2022-10-17T11:43:32.575Z,81.60
2022-10-17T11:46:20.441Z,81.50
2022-10-17T11:48:59.868Z,80.60
2022-10-17T11:54:26.044Z,77.60
2022-10-17T11:57:11.663Z,78.70
2022-10-17T11:59:53.029Z,77.90
2022-10-17T12:02:32.370Z,77.40
2022-10-17T12:05:19.582Z,77.20
2022-10-17T12:08:06.228Z,77.30
2022-10-17T12:10:56.275Z,76.20
2022-10-17T12:13:29.397Z,75.50
2022-10-17T12:15:57.916Z,75.20
2022-10-17T12:18:27.452Z,72.70
2022-10-17T12:21:00.092Z,72.60
2022-10-17T12:23:29.574Z,71.80
2022-10-17T12:26:04.851Z,72.70
2022-10-17T12:28:38.219Z,71.30
2022-10-17T12:31:16.133Z,70.40
2022-10-17T12:33:46.301Z,68.60
2022-10-17T12:36:22.286Z,68.20
2022-10-17T12:38:52.117Z,64.40
2022-10-17T12:41:46.520Z,60.70
2022-10-17T12:44:14.003Z,60.90
2022-10-17T12:46:44.343Z,58.30
2022-10-17T12:49:48.436Z,50.30
2022-10-17T12:52:35.205Z,43.60
2022-10-17T12:55:11.957Z,38.00
2022-10-17T12:57:47.180Z,34.20
2022-10-17T13:00:32.944Z,32.50
2022-10-17T13:03:17.045Z,30.50
2022-10-17T13:05:56.850Z,29.30
2022-10-17T13:08:33.396Z,28.60
2022-10-17T13:11:02.840Z,26.90
2022-10-17T13:13:52.072Z,26.90
2022-10-17T13:16:40.888Z,26.80
2022-10-17T13:19:17.327Z,26.50
2022-10-17T13:21:58.752Z,26.00
2022-10-17T13:24:39.096Z,26.00
2022-10-17T13:27:22.386Z,25.70
2022-10-17T13:29:49.525Z,25.90
2022-10-17T13:32:16.972Z,25.20
2022-10-17T13:34:44.266Z,25.00
2022-10-17T13:37:15.755Z,24.80
2022-10-17T13:42:27.970Z,24.30
2022-10-17T13:44:56.913Z,24.30
2022-10-17T13:47:27.763Z,24.30
2022-10-17T13:49:56.574Z,24.50
2022-10-17T13:52:30.838Z,24.50
2022-10-17T13:55:16.858Z,25.10
2022-10-17T13:57:44.800Z,25.00
2022-10-17T14:00:22.977Z,25.10
2022-10-17T14:02:50.114Z,25.50
2022-10-17T14:05:21.811Z,26.30
2022-10-17T14:08:11.472Z,26.20
2022-10-17T14:10:42.292Z,26.70
2022-10-17T14:13:22.815Z,26.80
2022-10-17T14:15:51.229Z,26.20
2022-10-17T14:18:22.048Z,26.00
2022-10-17T14:23:41.489Z,25.60
2022-10-17T14:26:28.795Z,25.30
2022-10-17T14:29:18.221Z,25.90
2022-10-17T14:31:45.479Z,27.20
2022-10-17T14:34:27.228Z,28.00
2022-10-17T14:36:55.417Z,28.80
2022-10-17T14:39:24.808Z,30.00
2022-10-17T14:41:53.286Z,31.50
2022-10-17T14:44:29.551Z,32.20
2022-10-17T14:47:18.298Z,33.90
2022-10-17T14:49:51.672Z,34.70
2022-10-17T14:52:19.108Z,35.20
2022-10-17T14:54:48.604Z,35.60
2022-10-17T14:57:15.881Z,36.20
2022-10-17T14:59:59.392Z,36.10
2022-10-17T15:02:29.881Z,37.00
2022-10-17T15:04:57.539Z,37.60
2022-10-17T15:07:24.982Z,38.20
2022-10-17T15:09:53.862Z,38.70
2022-10-17T15:12:25.232Z,38.70
2022-10-17T15:14:53.933Z,39.10
2022-10-17T15:17:24.846Z,38.90
2022-10-17T15:19:52.285Z,38.90
2022-10-17T15:22:19.503Z,39.20
2022-10-17T15:24:46.924Z,39.50
2022-10-17T15:27:32.736Z,39.60
2022-10-17T15:30:00.303Z,40.40
2022-10-17T15:32:27.401Z,40.60
2022-10-17T15:34:54.468Z,41.10
2022-10-17T15:37:25.705Z,41.40
2022-10-17T15:39:55.158Z,41.60
2022-10-17T15:42:31.624Z,42.00
2022-10-17T15:44:59.067Z,42.40
2022-10-17T15:47:33.800Z,43.20
2022-10-17T15:50:02.374Z,43.90
2022-10-17T15:52:30.709Z,45.10
2022-10-17T15:55:00.869Z,45.40
2022-10-17T15:57:36.186Z,45.80
2022-10-17T16:00:06.256Z,46.40
2022-10-17T16:02:36.540Z,47.20
2022-10-17T16:05:16.241Z,47.60
2022-10-17T16:07:46.181Z,48.30
2022-10-17T16:10:14.625Z,48.70
2022-10-17T16:12:42.425Z,49.30
2022-10-17T16:15:15.851Z,49.70
2022-10-17T16:17:43.930Z,50.20
2022-10-17T16:20:12.565Z,50.60
2022-10-17T16:22:42.216Z,51.20
2022-10-17T16:25:19.616Z,51.50
2022-10-17T16:27:48.479Z,51.90
2022-10-17T16:30:16.817Z,52.20
2022-10-17T16:32:43.966Z,52.50
2022-10-17T16:35:17.543Z,52.80
2022-10-17T16:37:44.659Z,53.20
2022-10-17T16:40:12.464Z,53.60
2022-10-17T16:42:39.716Z,53.90
2022-10-17T16:45:07.233Z,54.20
2022-10-17T16:47:34.515Z,54.50
2022-10-17T16:50:01.773Z,54.60
2022-10-17T16:52:30.114Z,54.90
2022-10-17T16:54:57.428Z,55.10
2022-10-17T16:57:24.499Z,55.40
2022-10-17T16:59:52.193Z,55.80
2022-10-17T17:02:21.361Z,56.00
2022-10-17T17:04:48.701Z,56.50
2022-10-17T17:07:18.128Z,57.00
2022-10-17T17:09:45.295Z,57.40
2022-10-17T17:12:12.604Z,57.70
2022-10-17T17:14:39.779Z,58.00
2022-10-17T17:17:09.581Z,58.30
2022-10-17T17:19:42.556Z,58.30
2022-10-17T17:22:09.544Z,58.40
2022-10-17T17:24:36.684Z,58.50
2022-10-17T17:27:03.843Z,58.60
2022-10-17T17:29:30.998Z,58.60
2022-10-17T17:31:58.212Z,58.60
2022-10-17T17:34:25.567Z,58.40
2022-10-17T17:36:52.651Z,58.70
2022-10-17T17:39:19.692Z,58.60
2022-10-17T17:41:47.042Z,59.00
2022-10-17T17:44:16.686Z,58.70
2022-10-17T17:46:45.090Z,58.90
2022-10-17T17:49:12.631Z,59.00
2022-10-17T17:51:41.583Z,58.90
2022-10-17T17:54:11.610Z,59.10
2022-10-17T17:56:39.554Z,59.20
2022-10-17T17:59:06.993Z,59.20
2022-10-17T18:01:38.274Z,59.20
2022-10-17T18:04:08.683Z,59.20
2022-10-17T18:06:37.624Z,59.10
2022-10-17T18:09:05.786Z,59.10
2022-10-17T18:11:33.551Z,59.30
2022-10-17T18:14:06.544Z,59.10
2022-10-17T18:16:36.197Z,59.10
2022-10-17T18:19:07.157Z,59.30
2022-10-17T18:21:35.586Z,59.10
2022-10-17T18:24:04.522Z,59.40
2022-10-17T18:26:31.764Z,59.50
2022-10-17T18:28:58.903Z,59.20
2022-10-17T18:31:32.151Z,59.20
2022-10-17T18:34:00.300Z,59.60
2022-10-17T18:36:28.883Z,59.70
2022-10-17T18:38:56.686Z,59.60
2022-10-17T18:41:25.746Z,59.60
2022-10-17T18:43:57.692Z,59.60
2022-10-17T18:46:27.941Z,59.80
2022-10-17T18:48:55.536Z,60.20
2022-10-17T18:51:24.482Z,60.30
2022-10-17T18:53:53.871Z,60.70
2022-10-17T18:56:21.999Z,60.80
2022-10-17T18:58:49.155Z,60.50
2022-10-17T19:01:19.313Z,60.40
2022-10-17T19:03:48.026Z,60.60
2022-10-17T19:06:17.575Z,60.30
2022-10-17T19:08:45.744Z,60.00
2022-10-17T19:11:18.624Z,60.40
2022-10-17T19:16:24.897Z,60.80
2022-10-17T19:18:54.358Z,60.80
2022-10-17T19:21:22.408Z,60.60
2022-10-17T19:23:58.031Z,60.80
2022-10-17T19:26:26.908Z,61.00
2022-10-17T19:28:54.180Z,61.10
2022-10-17T19:31:26.784Z,61.20
2022-10-17T19:33:55.814Z,61.60
2022-10-17T19:36:28.887Z,61.70
2022-10-17T19:38:59.869Z,61.40
2022-10-17T19:41:27.045Z,61.70
2022-10-17T19:43:54.153Z,61.60
2022-10-17T19:46:23.558Z,62.50
2022-10-17T19:48:51.363Z,62.20
2022-10-17T19:51:20.731Z,62.70
2022-10-17T19:53:48.163Z,61.80
2022-10-17T19:56:18.624Z,62.90
2022-10-17T19:58:47.455Z,62.50
2022-10-17T20:01:17.973Z,62.80
2022-10-17T20:03:45.278Z,62.60
2022-10-17T20:06:12.999Z,62.70
2022-10-17T20:08:41.154Z,62.40
2022-10-17T20:11:16.958Z,62.60
2022-10-17T20:13:44.955Z,62.90
2022-10-17T20:16:14.777Z,63.00
2022-10-17T20:18:42.334Z,62.90
2022-10-17T20:21:12.248Z,63.10
2022-10-17T20:23:40.470Z,63.30
2022-10-17T20:26:25.791Z,63.30
2022-10-17T20:28:53.904Z,63.10
2022-10-17T20:31:21.633Z,63.70
2022-10-17T20:33:48.776Z,63.40
2022-10-17T20:36:16.662Z,63.10
2022-10-17T20:38:43.731Z,63.30
2022-10-17T20:41:10.981Z,63.40
2022-10-17T20:43:38.420Z,63.30
2022-10-17T20:46:22.698Z,63.70
2022-10-17T20:48:53.797Z,64.10
2022-10-17T20:51:21.939Z,64.20
2022-10-17T20:53:49.206Z,64.40
2022-10-17T20:56:28.660Z,64.70
2022-10-17T20:59:01.318Z,64.80
2022-10-17T21:01:30.090Z,64.80
2022-10-17T21:04:06.138Z,65.10
2022-10-17T21:06:43.496Z,65.30
2022-10-17T21:09:10.555Z,65.60
2022-10-17T21:11:37.810Z,65.90
2022-10-17T21:14:06.379Z,66.00
2022-10-17T21:16:35.462Z,66.30
2022-10-17T21:19:04.511Z,66.50
2022-10-17T21:21:34.272Z,66.40
2022-10-17T21:24:04.945Z,66.50
2022-10-17T21:26:33.987Z,67.00
2022-10-17T21:29:05.895Z,67.60
2022-10-17T21:31:36.262Z,68.50
2022-10-17T21:34:25.565Z,69.30
2022-10-17T21:36:53.029Z,70.10
2022-10-17T21:39:20.293Z,71.00
2022-10-17T21:41:47.637Z,71.70
2022-10-17T21:44:17.580Z,72.20
2022-10-17T21:46:45.438Z,73.10
2022-10-17T21:49:14.439Z,74.10
2022-10-17T21:51:42.358Z,74.70
2022-10-17T21:54:09.584Z,75.20
2022-10-17T21:56:37.143Z,75.70
2022-10-17T21:59:05.333Z,76.50
2022-10-17T22:01:41.617Z,77.20
2022-10-17T22:04:12.064Z,78.20
2022-10-17T22:06:41.249Z,78.90
2022-10-17T22:09:21.624Z,80.00
2022-10-17T22:11:52.055Z,81.00
2022-10-17T22:14:20.853Z,82.10
2022-10-17T22:16:49.230Z,82.90
2022-10-17T22:19:21.167Z,83.90
2022-10-17T22:21:48.521Z,85.20
2022-10-17T22:24:17.701Z,84.80
2022-10-17T22:26:45.609Z,85.70
2022-10-17T22:29:12.883Z,86.30
2022-10-17T22:31:40.200Z,86.00
2022-10-17T22:34:08.012Z,85.80
2022-10-17T22:36:35.718Z,86.50
2022-10-17T22:39:04.123Z,86.00
2022-10-17T22:41:31.303Z,84.80
2022-10-17T22:43:58.434Z,84.60
2022-10-17T22:46:25.592Z,84.70
2022-10-17T22:48:52.665Z,84.80
2022-10-17T22:51:19.821Z,84.60
2022-10-17T22:53:46.971Z,84.60
2022-10-17T22:56:16.963Z,85.20
2022-10-17T22:58:44.238Z,86.70
2022-10-17T23:01:17.831Z,85.70
2022-10-17T23:03:45.291Z,85.40
2022-10-17T23:06:12.696Z,85.50
2022-10-17T23:08:40.380Z,85.60
2022-10-17T23:11:07.911Z,86.30
2022-10-17T23:13:35.568Z,85.70
2022-10-17T23:16:03.653Z,85.50
2022-10-17T23:21:03.084Z,85.70
2022-10-17T23:23:30.148Z,85.60
2022-10-17T23:26:08.124Z,84.80
2022-10-17T23:28:35.744Z,84.50
2022-10-17T23:31:17.649Z,84.80
2022-10-17T23:33:46.178Z,84.20
2022-10-17T23:36:14.952Z,83.90
2022-10-17T23:38:44.606Z,84.20
2022-10-17T23:41:12.261Z,83.90
2022-10-17T23:43:40.206Z,84.20
2022-10-17T23:46:07.713Z,84.10
2022-10-17T23:48:34.968Z,84.00
2022-10-17T23:51:02.151Z,83.90
2022-10-17T23:53:29.342Z,83.90
2022-10-17T23:55:56.787Z,83.50
2022-10-17T23:58:24.025Z,83.80
